sensor_id;sensor_type;location;lat;lon;timestamp;P1;durP1;ratioP1;P2;durP2;ratioP2
54123;SDS011;55741;53.252;5.788;2023-10-13T00:00:37;143.13;;;45.83;;
54123;SDS011;55741;53.252;5.788;2023-10-13T00:03:07;125.05;;;46.42;;
54123;SDS011;55741;53.252;5.788;2023-10-13T00:05:40;193.95;;;52.22;;
54123;SDS011;55741;53.252;5.788;2023-10-13T00:08:08;131.30;;;47.80;;
54123;SDS011;55741;53.252;5.788;2023-10-13T00:10:34;154.88;;;48.20;;
54123;SDS011;55741;53.252;5.788;2023-10-13T00:13:01;117.97;;;44.17;;
54123;SDS011;55741;53.252;5.788;2023-10-13T00:15:44;151.50;;;50.00;;
54123;SDS011;55741;53.252;5.788;2023-10-13T00:18:22;158.57;;;51.20;;
54123;SDS011;55741;53.252;5.788;2023-10-13T00:20:51;129.40;;;49.00;;
54123;SDS011;55741;53.252;5.788;2023-10-13T00:23:21;143.05;;;52.33;;
54123;SDS011;55741;53.252;5.788;2023-10-13T00:25:51;161.70;;;52.95;;
54123;SDS011;55741;53.252;5.788;2023-10-13T00:28:25;150.82;;;52.92;;
54123;SDS011;55741;53.252;5.788;2023-10-13T00:30:52;166.73;;;54.22;;
54123;SDS011;55741;53.252;5.788;2023-10-13T00:33:25;143.23;;;53.20;;
54123;SDS011;55741;53.252;5.788;2023-10-13T00:35:52;165.70;;;57.97;;
54123;SDS011;55741;53.252;5.788;2023-10-13T00:38:18;179.88;;;57.55;;
54123;SDS011;55741;53.252;5.788;2023-10-13T00:40:44;157.63;;;57.78;;
54123;SDS011;55741;53.252;5.788;2023-10-13T00:43:22;166.27;;;56.67;;
54123;SDS011;55741;53.252;5.788;2023-10-13T00:45:52;153.25;;;56.53;;
54123;SDS011;55741;53.252;5.788;2023-10-13T00:48:28;136.57;;;52.08;;
54123;SDS011;55741;53.252;5.788;2023-10-13T00:51:06;167.10;;;57.50;;
54123;SDS011;55741;53.252;5.788;2023-10-13T00:53:33;152.80;;;54.08;;
54123;SDS011;55741;53.252;5.788;2023-10-13T00:56:05;151.73;;;55.65;;
54123;SDS011;55741;53.252;5.788;2023-10-13T00:58:35;142.93;;;54.55;;
54123;SDS011;55741;53.252;5.788;2023-10-13T01:01:04;136.25;;;52.72;;
54123;SDS011;55741;53.252;5.788;2023-10-13T01:03:54;127.72;;;49.85;;
54123;SDS011;55741;53.252;5.788;2023-10-13T01:06:21;133.00;;;50.55;;
54123;SDS011;55741;53.252;5.788;2023-10-13T01:08:58;123.00;;;47.10;;
54123;SDS011;55741;53.252;5.788;2023-10-13T01:11:48;127.00;;;46.38;;
54123;SDS011;55741;53.252;5.788;2023-10-13T01:14:20;123.20;;;47.22;;
54123;SDS011;55741;53.252;5.788;2023-10-13T01:16:54;120.20;;;46.13;;
54123;SDS011;55741;53.252;5.788;2023-10-13T01:19:23;117.95;;;45.85;;
54123;SDS011;55741;53.252;5.788;2023-10-13T01:21:53;120.70;;;45.17;;
54123;SDS011;55741;53.252;5.788;2023-10-13T01:24:27;111.00;;;44.92;;
54123;SDS011;55741;53.252;5.788;2023-10-13T01:26:57;101.25;;;43.70;;
54123;SDS011;55741;53.252;5.788;2023-10-13T01:29:25;111.57;;;44.00;;
54123;SDS011;55741;53.252;5.788;2023-10-13T01:31:54;113.60;;;43.55;;
54123;SDS011;55741;53.252;5.788;2023-10-13T01:34:20;101.10;;;43.10;;
54123;SDS011;55741;53.252;5.788;2023-10-13T01:36:52;85.10;;;38.75;;
54123;SDS011;55741;53.252;5.788;2023-10-13T01:39:23;95.60;;;41.13;;
54123;SDS011;55741;53.252;5.788;2023-10-13T01:41:54;78.03;;;35.80;;
54123;SDS011;55741;53.252;5.788;2023-10-13T01:44:23;80.78;;;36.15;;
54123;SDS011;55741;53.252;5.788;2023-10-13T01:46:59;67.22;;;31.88;;
54123;SDS011;55741;53.252;5.788;2023-10-13T01:49:35;66.72;;;29.13;;
54123;SDS011;55741;53.252;5.788;2023-10-13T01:52:13;58.22;;;26.40;;
54123;SDS011;55741;53.252;5.788;2023-10-13T01:54:43;45.88;;;24.23;;
54123;SDS011;55741;53.252;5.788;2023-10-13T01:57:11;38.95;;;21.60;;
54123;SDS011;55741;53.252;5.788;2023-10-13T01:59:42;43.63;;;21.80;;
54123;SDS011;55741;53.252;5.788;2023-10-13T02:02:13;32.22;;;18.90;;
54123;SDS011;55741;53.252;5.788;2023-10-13T02:04:42;34.33;;;18.00;;
54123;SDS011;55741;53.252;5.788;2023-10-13T02:07:14;31.05;;;17.58;;
54123;SDS011;55741;53.252;5.788;2023-10-13T02:09:41;28.23;;;15.07;;
54123;SDS011;55741;53.252;5.788;2023-10-13T02:12:08;31.05;;;15.98;;
54123;SDS011;55741;53.252;5.788;2023-10-13T02:14:35;26.92;;;13.88;;
54123;SDS011;55741;53.252;5.788;2023-10-13T02:17:03;29.42;;;14.13;;
54123;SDS011;55741;53.252;5.788;2023-10-13T02:19:39;25.42;;;13.02;;
54123;SDS011;55741;53.252;5.788;2023-10-13T02:22:09;27.42;;;13.73;;
54123;SDS011;55741;53.252;5.788;2023-10-13T02:24:43;25.70;;;12.85;;
54123;SDS011;55741;53.252;5.788;2023-10-13T02:27:17;28.08;;;13.80;;
54123;SDS011;55741;53.252;5.788;2023-10-13T02:29:43;32.28;;;16.17;;
54123;SDS011;55741;53.252;5.788;2023-10-13T02:32:11;23.50;;;13.85;;
54123;SDS011;55741;53.252;5.788;2023-10-13T02:34:55;26.23;;;16.02;;
54123;SDS011;55741;53.252;5.788;2023-10-13T02:37:31;25.00;;;16.55;;
54123;SDS011;55741;53.252;5.788;2023-10-13T02:39:56;32.40;;;16.13;;
54123;SDS011;55741;53.252;5.788;2023-10-13T02:42:23;24.25;;;16.25;;
54123;SDS011;55741;53.252;5.788;2023-10-13T02:44:51;33.65;;;17.73;;
54123;SDS011;55741;53.252;5.788;2023-10-13T02:47:21;31.80;;;17.52;;
54123;SDS011;55741;53.252;5.788;2023-10-13T02:49:49;35.78;;;20.05;;
54123;SDS011;55741;53.252;5.788;2023-10-13T02:52:15;42.03;;;20.05;;
54123;SDS011;55741;53.252;5.788;2023-10-13T02:54:41;38.80;;;20.60;;
54123;SDS011;55741;53.252;5.788;2023-10-13T02:57:18;36.70;;;20.55;;
54123;SDS011;55741;53.252;5.788;2023-10-13T02:59:45;34.08;;;19.65;;
54123;SDS011;55741;53.252;5.788;2023-10-13T03:02:21;35.55;;;22.27;;
54123;SDS011;55741;53.252;5.788;2023-10-13T03:04:57;32.10;;;21.27;;
54123;SDS011;55741;53.252;5.788;2023-10-13T03:07:34;37.58;;;22.20;;
54123;SDS011;55741;53.252;5.788;2023-10-13T03:10:02;38.42;;;22.10;;
54123;SDS011;55741;53.252;5.788;2023-10-13T03:12:40;41.88;;;22.05;;
54123;SDS011;55741;53.252;5.788;2023-10-13T03:15:06;41.53;;;23.42;;
54123;SDS011;55741;53.252;5.788;2023-10-13T03:17:36;44.55;;;25.40;;
54123;SDS011;55741;53.252;5.788;2023-10-13T03:20:02;48.28;;;25.08;;
54123;SDS011;55741;53.252;5.788;2023-10-13T03:22:32;63.13;;;27.23;;
54123;SDS011;55741;53.252;5.788;2023-10-13T03:24:58;52.35;;;26.50;;
54123;SDS011;55741;53.252;5.788;2023-10-13T03:27:38;63.67;;;31.45;;
54123;SDS011;55741;53.252;5.788;2023-10-13T03:30:24;55.42;;;30.25;;
54123;SDS011;55741;53.252;5.788;2023-10-13T03:33:07;64.68;;;34.10;;
54123;SDS011;55741;53.252;5.788;2023-10-13T03:35:37;64.70;;;32.88;;
54123;SDS011;55741;53.252;5.788;2023-10-13T03:38:07;70.60;;;32.53;;
54123;SDS011;55741;53.252;5.788;2023-10-13T03:40:43;68.03;;;32.40;;
54123;SDS011;55741;53.252;5.788;2023-10-13T03:43:32;76.85;;;34.53;;
54123;SDS011;55741;53.252;5.788;2023-10-13T03:46:11;75.78;;;34.30;;
54123;SDS011;55741;53.252;5.788;2023-10-13T03:48:37;64.63;;;32.35;;
54123;SDS011;55741;53.252;5.788;2023-10-13T03:51:26;64.28;;;31.75;;
54123;SDS011;55741;53.252;5.788;2023-10-13T03:54:04;64.72;;;31.85;;
54123;SDS011;55741;53.252;5.788;2023-10-13T03:56:32;73.63;;;34.72;;
54123;SDS011;55741;53.252;5.788;2023-10-13T03:59:05;62.03;;;31.85;;
54123;SDS011;55741;53.252;5.788;2023-10-13T04:01:36;63.25;;;34.10;;
54123;SDS011;55741;53.252;5.788;2023-10-13T04:04:12;68.90;;;33.22;;
54123;SDS011;55741;53.252;5.788;2023-10-13T04:06:58;56.70;;;31.27;;
54123;SDS011;55741;53.252;5.788;2023-10-13T04:09:44;59.03;;;29.92;;
54123;SDS011;55741;53.252;5.788;2023-10-13T04:12:13;56.03;;;29.33;;
54123;SDS011;55741;53.252;5.788;2023-10-13T04:14:40;58.35;;;27.92;;
54123;SDS011;55741;53.252;5.788;2023-10-13T04:17:26;48.85;;;25.33;;
54123;SDS011;55741;53.252;5.788;2023-10-13T04:19:52;43.75;;;26.25;;
54123;SDS011;55741;53.252;5.788;2023-10-13T04:22:32;57.42;;;29.00;;
54123;SDS011;55741;53.252;5.788;2023-10-13T04:25:20;52.83;;;27.92;;
54123;SDS011;55741;53.252;5.788;2023-10-13T04:33:33;53.05;;;27.98;;
54123;SDS011;55741;53.252;5.788;2023-10-13T04:41:25;44.17;;;21.58;;
54123;SDS011;55741;53.252;5.788;2023-10-13T04:44:04;38.85;;;20.25;;
54123;SDS011;55741;53.252;5.788;2023-10-13T04:46:53;24.48;;;16.35;;
54123;SDS011;55741;53.252;5.788;2023-10-13T04:49:33;32.25;;;16.70;;
54123;SDS011;55741;53.252;5.788;2023-10-13T04:52:15;28.73;;;16.90;;
54123;SDS011;55741;53.252;5.788;2023-10-13T04:55:00;26.10;;;15.55;;
54123;SDS011;55741;53.252;5.788;2023-10-13T04:57:41;26.40;;;16.63;;
54123;SDS011;55741;53.252;5.788;2023-10-13T05:00:18;30.70;;;16.90;;
54123;SDS011;55741;53.252;5.788;2023-10-13T05:02:45;29.42;;;18.48;;
54123;SDS011;55741;53.252;5.788;2023-10-13T05:05:22;28.30;;;18.58;;
54123;SDS011;55741;53.252;5.788;2023-10-13T05:07:51;33.80;;;19.77;;
54123;SDS011;55741;53.252;5.788;2023-10-13T05:10:36;31.85;;;19.38;;
54123;SDS011;55741;53.252;5.788;2023-10-13T05:13:20;31.42;;;18.70;;
54123;SDS011;55741;53.252;5.788;2023-10-13T05:16:05;26.65;;;18.05;;
54123;SDS011;55741;53.252;5.788;2023-10-13T05:18:49;25.15;;;16.88;;
54123;SDS011;55741;53.252;5.788;2023-10-13T05:21:34;26.95;;;15.45;;
54123;SDS011;55741;53.252;5.788;2023-10-13T05:24:18;23.83;;;15.35;;
54123;SDS011;55741;53.252;5.788;2023-10-13T05:27:02;26.58;;;16.33;;
54123;SDS011;55741;53.252;5.788;2023-10-13T05:29:47;29.13;;;17.33;;
54123;SDS011;55741;53.252;5.788;2023-10-13T05:32:32;28.48;;;17.83;;
54123;SDS011;55741;53.252;5.788;2023-10-13T05:35:20;22.55;;;15.85;;
54123;SDS011;55741;53.252;5.788;2023-10-13T05:38:05;26.25;;;16.35;;
54123;SDS011;55741;53.252;5.788;2023-10-13T05:43:40;19.45;;;13.00;;
54123;SDS011;55741;53.252;5.788;2023-10-13T05:46:24;24.95;;;13.93;;
54123;SDS011;55741;53.252;5.788;2023-10-13T05:48:52;12.48;;;9.40;;
54123;SDS011;55741;53.252;5.788;2023-10-13T05:51:25;12.23;;;8.38;;
54123;SDS011;55741;53.252;5.788;2023-10-13T05:53:57;12.07;;;7.13;;
54123;SDS011;55741;53.252;5.788;2023-10-13T05:56:39;9.57;;;7.10;;
54123;SDS011;55741;53.252;5.788;2023-10-13T05:59:28;10.95;;;7.63;;
54123;SDS011;55741;53.252;5.788;2023-10-13T06:02:14;10.13;;;6.30;;
54123;SDS011;55741;53.252;5.788;2023-10-13T06:05:06;9.73;;;6.65;;
54123;SDS011;55741;53.252;5.788;2023-10-13T06:07:55;12.05;;;7.78;;
54123;SDS011;55741;53.252;5.788;2023-10-13T06:10:39;13.75;;;7.85;;
54123;SDS011;55741;53.252;5.788;2023-10-13T06:13:24;10.82;;;7.55;;
54123;SDS011;55741;53.252;5.788;2023-10-13T06:16:10;11.85;;;7.60;;
54123;SDS011;55741;53.252;5.788;2023-10-13T06:18:56;10.88;;;7.63;;
54123;SDS011;55741;53.252;5.788;2023-10-13T06:21:41;12.20;;;7.78;;
54123;SDS011;55741;53.252;5.788;2023-10-13T06:24:26;11.85;;;7.20;;
54123;SDS011;55741;53.252;5.788;2023-10-13T06:27:10;8.10;;;6.45;;
54123;SDS011;55741;53.252;5.788;2023-10-13T06:29:55;12.93;;;7.35;;
54123;SDS011;55741;53.252;5.788;2023-10-13T06:32:21;9.93;;;6.93;;
54123;SDS011;55741;53.252;5.788;2023-10-13T06:34:54;9.60;;;5.97;;
54123;SDS011;55741;53.252;5.788;2023-10-13T06:37:31;9.18;;;3.95;;
54123;SDS011;55741;53.252;5.788;2023-10-13T06:39:59;12.38;;;5.68;;
54123;SDS011;55741;53.252;5.788;2023-10-13T06:42:32;15.23;;;5.53;;
54123;SDS011;55741;53.252;5.788;2023-10-13T06:45:00;14.75;;;5.78;;
54123;SDS011;55741;53.252;5.788;2023-10-13T06:47:34;19.08;;;6.13;;
54123;SDS011;55741;53.252;5.788;2023-10-13T06:50:06;15.82;;;5.88;;
54123;SDS011;55741;53.252;5.788;2023-10-13T06:55:08;7.47;;;4.80;;
54123;SDS011;55741;53.252;5.788;2023-10-13T06:57:48;10.10;;;4.07;;
54123;SDS011;55741;53.252;5.788;2023-10-13T07:00:16;11.35;;;5.18;;
54123;SDS011;55741;53.252;5.788;2023-10-13T07:02:54;12.05;;;5.97;;
54123;SDS011;55741;53.252;5.788;2023-10-13T07:05:48;9.80;;;4.97;;
54123;SDS011;55741;53.252;5.788;2023-10-13T07:08:14;16.83;;;6.68;;
54123;SDS011;55741;53.252;5.788;2023-10-13T07:10:54;20.38;;;6.75;;
54123;SDS011;55741;53.252;5.788;2023-10-13T07:15:56;21.08;;;6.90;;
54123;SDS011;55741;53.252;5.788;2023-10-13T07:18:30;22.00;;;7.03;;
54123;SDS011;55741;53.252;5.788;2023-10-13T07:21:03;24.27;;;7.20;;
54123;SDS011;55741;53.252;5.788;2023-10-13T07:23:38;22.70;;;6.68;;
54123;SDS011;55741;53.252;5.788;2023-10-13T07:26:07;34.40;;;9.02;;
54123;SDS011;55741;53.252;5.788;2023-10-13T07:28:34;26.13;;;8.60;;
54123;SDS011;55741;53.252;5.788;2023-10-13T07:31:11;30.05;;;8.85;;
54123;SDS011;55741;53.252;5.788;2023-10-13T07:33:41;24.60;;;8.02;;
54123;SDS011;55741;53.252;5.788;2023-10-13T07:36:08;21.38;;;8.02;;
54123;SDS011;55741;53.252;5.788;2023-10-13T07:38:42;21.85;;;6.97;;
54123;SDS011;55741;53.252;5.788;2023-10-13T07:41:08;24.15;;;8.65;;
54123;SDS011;55741;53.252;5.788;2023-10-13T07:43:41;20.08;;;7.50;;
54123;SDS011;55741;53.252;5.788;2023-10-13T07:46:10;25.38;;;7.82;;
54123;SDS011;55741;53.252;5.788;2023-10-13T07:48:37;27.70;;;7.68;;
54123;SDS011;55741;53.252;5.788;2023-10-13T07:51:08;19.35;;;7.97;;
54123;SDS011;55741;53.252;5.788;2023-10-13T07:53:42;27.17;;;8.93;;
54123;SDS011;55741;53.252;5.788;2023-10-13T07:56:14;25.00;;;7.90;;
54123;SDS011;55741;53.252;5.788;2023-10-13T07:58:44;27.45;;;9.38;;
54123;SDS011;55741;53.252;5.788;2023-10-13T08:01:28;26.38;;;8.65;;
54123;SDS011;55741;53.252;5.788;2023-10-13T08:03:54;26.50;;;9.43;;
54123;SDS011;55741;53.252;5.788;2023-10-13T08:06:38;29.77;;;8.60;;
54123;SDS011;55741;53.252;5.788;2023-10-13T08:09:06;26.52;;;9.00;;
54123;SDS011;55741;53.252;5.788;2023-10-13T08:11:33;28.85;;;9.05;;
54123;SDS011;55741;53.252;5.788;2023-10-13T08:14:00;23.27;;;8.70;;
54123;SDS011;55741;53.252;5.788;2023-10-13T08:16:46;26.15;;;9.45;;
54123;SDS011;55741;53.252;5.788;2023-10-13T08:19:27;29.13;;;10.07;;
54123;SDS011;55741;53.252;5.788;2023-10-13T08:21:58;25.98;;;8.18;;
54123;SDS011;55741;53.252;5.788;2023-10-13T08:24:24;28.92;;;8.80;;
54123;SDS011;55741;53.252;5.788;2023-10-13T08:27:12;26.17;;;8.40;;
54123;SDS011;55741;53.252;5.788;2023-10-13T08:29:57;21.38;;;8.48;;
54123;SDS011;55741;53.252;5.788;2023-10-13T08:32:23;24.73;;;8.30;;
54123;SDS011;55741;53.252;5.788;2023-10-13T08:34:53;28.45;;;8.20;;
54123;SDS011;55741;53.252;5.788;2023-10-13T08:37:22;16.42;;;7.25;;
54123;SDS011;55741;53.252;5.788;2023-10-13T08:39:52;14.45;;;7.10;;
54123;SDS011;55741;53.252;5.788;2023-10-13T08:45:16;16.40;;;7.20;;
54123;SDS011;55741;53.252;5.788;2023-10-13T08:47:52;18.95;;;8.05;;
54123;SDS011;55741;53.252;5.788;2023-10-13T08:50:33;15.60;;;7.65;;
54123;SDS011;55741;53.252;5.788;2023-10-13T08:53:28;19.67;;;7.45;;
54123;SDS011;55741;53.252;5.788;2023-10-13T08:58:30;15.50;;;7.30;;
54123;SDS011;55741;53.252;5.788;2023-10-13T09:01:15;14.05;;;6.80;;
54123;SDS011;55741;53.252;5.788;2023-10-13T09:06:47;22.92;;;8.43;;
54123;SDS011;55741;53.252;5.788;2023-10-13T09:09:27;15.60;;;8.27;;
54123;SDS011;55741;53.252;5.788;2023-10-13T09:12:02;20.38;;;8.52;;
54123;SDS011;55741;53.252;5.788;2023-10-13T09:14:41;18.40;;;9.45;;
54123;SDS011;55741;53.252;5.788;2023-10-13T09:17:12;17.15;;;8.55;;
54123;SDS011;55741;53.252;5.788;2023-10-13T09:19:48;12.93;;;7.60;;
54123;SDS011;55741;53.252;5.788;2023-10-13T09:22:21;17.63;;;8.43;;
54123;SDS011;55741;53.252;5.788;2023-10-13T09:25:01;15.13;;;8.38;;
54123;SDS011;55741;53.252;5.788;2023-10-13T09:27:31;17.00;;;8.00;;
54123;SDS011;55741;53.252;5.788;2023-10-13T09:30:02;19.48;;;8.35;;
54123;SDS011;55741;53.252;5.788;2023-10-13T09:32:46;15.32;;;7.40;;
54123;SDS011;55741;53.252;5.788;2023-10-13T09:35:17;19.33;;;7.60;;
54123;SDS011;55741;53.252;5.788;2023-10-13T09:37:58;19.00;;;7.53;;
54123;SDS011;55741;53.252;5.788;2023-10-13T09:40:26;15.52;;;7.45;;
54123;SDS011;55741;53.252;5.788;2023-10-13T09:43:01;15.13;;;7.43;;
54123;SDS011;55741;53.252;5.788;2023-10-13T09:48:10;16.17;;;7.03;;
54123;SDS011;55741;53.252;5.788;2023-10-13T09:50:43;12.57;;;6.80;;
54123;SDS011;55741;53.252;5.788;2023-10-13T09:53:13;18.17;;;7.80;;
54123;SDS011;55741;53.252;5.788;2023-10-13T09:55:46;16.20;;;7.47;;
54123;SDS011;55741;53.252;5.788;2023-10-13T09:58:15;19.65;;;6.78;;
54123;SDS011;55741;53.252;5.788;2023-10-13T10:00:44;15.45;;;7.40;;
54123;SDS011;55741;53.252;5.788;2023-10-13T10:03:15;14.10;;;6.43;;
54123;SDS011;55741;53.252;5.788;2023-10-13T10:06:05;16.55;;;6.60;;
54123;SDS011;55741;53.252;5.788;2023-10-13T10:08:42;17.70;;;7.15;;
54123;SDS011;55741;53.252;5.788;2023-10-13T10:14:13;16.67;;;6.68;;
54123;SDS011;55741;53.252;5.788;2023-10-13T10:19:48;17.98;;;7.32;;
54123;SDS011;55741;53.252;5.788;2023-10-13T10:22:24;18.60;;;6.65;;
54123;SDS011;55741;53.252;5.788;2023-10-13T10:25:05;17.65;;;6.25;;
54123;SDS011;55741;53.252;5.788;2023-10-13T10:27:55;21.38;;;7.35;;
54123;SDS011;55741;53.252;5.788;2023-10-13T10:30:26;19.98;;;7.00;;
54123;SDS011;55741;53.252;5.788;2023-10-13T10:32:55;17.05;;;6.55;;
54123;SDS011;55741;53.252;5.788;2023-10-13T10:35:25;23.13;;;7.50;;
54123;SDS011;55741;53.252;5.788;2023-10-13T10:38:10;15.93;;;7.47;;
54123;SDS011;55741;53.252;5.788;2023-10-13T10:40:51;20.38;;;7.93;;
54123;SDS011;55741;53.252;5.788;2023-10-13T10:43:24;17.20;;;6.68;;
54123;SDS011;55741;53.252;5.788;2023-10-13T10:45:51;19.92;;;7.03;;
54123;SDS011;55741;53.252;5.788;2023-10-13T10:48:18;18.92;;;6.68;;
54123;SDS011;55741;53.252;5.788;2023-10-13T10:50:50;20.63;;;6.78;;
54123;SDS011;55741;53.252;5.788;2023-10-13T10:53:23;23.80;;;7.13;;
54123;SDS011;55741;53.252;5.788;2023-10-13T10:56:04;21.95;;;8.15;;
54123;SDS011;55741;53.252;5.788;2023-10-13T10:58:48;19.10;;;6.25;;
54123;SDS011;55741;53.252;5.788;2023-10-13T11:01:22;19.75;;;7.10;;
54123;SDS011;55741;53.252;5.788;2023-10-13T11:06:24;26.20;;;8.50;;
54123;SDS011;55741;53.252;5.788;2023-10-13T11:09:01;15.13;;;7.57;;
54123;SDS011;55741;53.252;5.788;2023-10-13T11:11:47;19.58;;;6.88;;
54123;SDS011;55741;53.252;5.788;2023-10-13T11:16:49;19.25;;;6.35;;
54123;SDS011;55741;53.252;5.788;2023-10-13T11:19:17;18.85;;;6.13;;
54123;SDS011;55741;53.252;5.788;2023-10-13T11:21:48;17.83;;;6.80;;
54123;SDS011;55741;53.252;5.788;2023-10-13T11:24:14;17.75;;;7.00;;
54123;SDS011;55741;53.252;5.788;2023-10-13T11:26:43;19.50;;;6.63;;
54123;SDS011;55741;53.252;5.788;2023-10-13T11:29:19;23.27;;;7.10;;
54123;SDS011;55741;53.252;5.788;2023-10-13T11:31:45;19.48;;;6.57;;
54123;SDS011;55741;53.252;5.788;2023-10-13T11:34:19;19.55;;;6.78;;
54123;SDS011;55741;53.252;5.788;2023-10-13T11:36:45;21.20;;;7.10;;
54123;SDS011;55741;53.252;5.788;2023-10-13T11:39:11;15.45;;;7.40;;
54123;SDS011;55741;53.252;5.788;2023-10-13T11:41:43;15.98;;;5.80;;
54123;SDS011;55741;53.252;5.788;2023-10-13T11:44:19;24.25;;;6.80;;
54123;SDS011;55741;53.252;5.788;2023-10-13T11:46:45;18.83;;;7.57;;
54123;SDS011;55741;53.252;5.788;2023-10-13T11:49:12;20.08;;;7.43;;
54123;SDS011;55741;53.252;5.788;2023-10-13T11:51:44;18.63;;;7.50;;
54123;SDS011;55741;53.252;5.788;2023-10-13T11:54:22;16.77;;;7.28;;
54123;SDS011;55741;53.252;5.788;2023-10-13T11:56:50;26.48;;;8.02;;
54123;SDS011;55741;53.252;5.788;2023-10-13T11:59:16;22.45;;;7.88;;
54123;SDS011;55741;53.252;5.788;2023-10-13T12:01:49;25.98;;;8.48;;
54123;SDS011;55741;53.252;5.788;2023-10-13T12:04:35;20.88;;;8.88;;
54123;SDS011;55741;53.252;5.788;2023-10-13T12:07:19;21.27;;;7.68;;
54123;SDS011;55741;53.252;5.788;2023-10-13T12:09:52;25.48;;;7.80;;
54123;SDS011;55741;53.252;5.788;2023-10-13T12:12:22;20.50;;;8.15;;
54123;SDS011;55741;53.252;5.788;2023-10-13T12:14:52;22.65;;;9.30;;
54123;SDS011;55741;53.252;5.788;2023-10-13T12:20:03;23.23;;;8.70;;
54123;SDS011;55741;53.252;5.788;2023-10-13T12:22:37;18.13;;;8.52;;
54123;SDS011;55741;53.252;5.788;2023-10-13T12:25:16;25.30;;;10.88;;
54123;SDS011;55741;53.252;5.788;2023-10-13T12:27:57;22.67;;;9.10;;
54123;SDS011;55741;53.252;5.788;2023-10-13T12:30:31;22.30;;;8.52;;
54123;SDS011;55741;53.252;5.788;2023-10-13T12:33:18;26.10;;;9.07;;
54123;SDS011;55741;53.252;5.788;2023-10-13T12:38:40;18.92;;;9.00;;
54123;SDS011;55741;53.252;5.788;2023-10-13T12:41:15;21.17;;;9.38;;
54123;SDS011;55741;53.252;5.788;2023-10-13T12:44:03;22.70;;;10.27;;
54123;SDS011;55741;53.252;5.788;2023-10-13T12:49:33;24.58;;;10.85;;
54123;SDS011;55741;53.252;5.788;2023-10-13T12:52:06;21.90;;;10.73;;
54123;SDS011;55741;53.252;5.788;2023-10-13T12:54:44;24.35;;;9.85;;
54123;SDS011;55741;53.252;5.788;2023-10-13T12:57:24;21.35;;;9.18;;
54123;SDS011;55741;53.252;5.788;2023-10-13T12:59:51;24.80;;;9.48;;
54123;SDS011;55741;53.252;5.788;2023-10-13T13:02:24;22.58;;;9.93;;
54123;SDS011;55741;53.252;5.788;2023-10-13T13:04:51;24.45;;;10.10;;
54123;SDS011;55741;53.252;5.788;2023-10-13T13:07:31;35.15;;;10.50;;
54123;SDS011;55741;53.252;5.788;2023-10-13T13:10:09;25.38;;;9.38;;
54123;SDS011;55741;53.252;5.788;2023-10-13T13:12:44;26.00;;;9.57;;
54123;SDS011;55741;53.252;5.788;2023-10-13T13:15:10;23.45;;;10.15;;
54123;SDS011;55741;53.252;5.788;2023-10-13T13:17:40;27.13;;;10.38;;
54123;SDS011;55741;53.252;5.788;2023-10-13T13:20:20;27.27;;;9.90;;
54123;SDS011;55741;53.252;5.788;2023-10-13T13:22:54;26.83;;;11.40;;
54123;SDS011;55741;53.252;5.788;2023-10-13T13:25:20;32.38;;;11.10;;
54123;SDS011;55741;53.252;5.788;2023-10-13T13:28:01;33.00;;;10.43;;
54123;SDS011;55741;53.252;5.788;2023-10-13T13:30:30;29.77;;;10.10;;
54123;SDS011;55741;53.252;5.788;2023-10-13T13:32:59;27.85;;;9.82;;
54123;SDS011;55741;53.252;5.788;2023-10-13T13:35:29;32.42;;;9.75;;
54123;SDS011;55741;53.252;5.788;2023-10-13T13:38:02;37.60;;;11.50;;
54123;SDS011;55741;53.252;5.788;2023-10-13T13:40:37;36.17;;;11.20;;
54123;SDS011;55741;53.252;5.788;2023-10-13T13:43:04;29.52;;;11.45;;
54123;SDS011;55741;53.252;5.788;2023-10-13T13:45:32;32.63;;;10.18;;
54123;SDS011;55741;53.252;5.788;2023-10-13T13:47:59;33.78;;;11.18;;
54123;SDS011;55741;53.252;5.788;2023-10-13T13:50:33;37.28;;;10.35;;
54123;SDS011;55741;53.252;5.788;2023-10-13T13:53:06;37.88;;;10.60;;
54123;SDS011;55741;53.252;5.788;2023-10-13T13:55:35;31.98;;;10.80;;
54123;SDS011;55741;53.252;5.788;2023-10-13T13:58:02;31.95;;;10.15;;
54123;SDS011;55741;53.252;5.788;2023-10-13T14:00:33;44.70;;;12.00;;
54123;SDS011;55741;53.252;5.788;2023-10-13T14:03:13;35.42;;;10.45;;
54123;SDS011;55741;53.252;5.788;2023-10-13T14:05:59;35.80;;;11.40;;
54123;SDS011;55741;53.252;5.788;2023-10-13T14:08:26;41.05;;;11.00;;
54123;SDS011;55741;53.252;5.788;2023-10-13T14:10:55;34.80;;;10.60;;
54123;SDS011;55741;53.252;5.788;2023-10-13T14:13:47;31.90;;;10.80;;
54123;SDS011;55741;53.252;5.788;2023-10-13T14:16:21;38.63;;;10.50;;
54123;SDS011;55741;53.252;5.788;2023-10-13T14:18:51;36.80;;;10.23;;
54123;SDS011;55741;53.252;5.788;2023-10-13T14:21:17;31.35;;;10.43;;
54123;SDS011;55741;53.252;5.788;2023-10-13T14:23:44;30.02;;;9.73;;
54123;SDS011;55741;53.252;5.788;2023-10-13T14:26:17;27.45;;;9.65;;
54123;SDS011;55741;53.252;5.788;2023-10-13T14:28:47;38.28;;;11.23;;
54123;SDS011;55741;53.252;5.788;2023-10-13T14:31:36;30.27;;;10.48;;
54123;SDS011;55741;53.252;5.788;2023-10-13T14:34:02;24.75;;;9.10;;
54123;SDS011;55741;53.252;5.788;2023-10-13T14:36:29;33.75;;;10.68;;
54123;SDS011;55741;53.252;5.788;2023-10-13T14:39:00;31.75;;;11.00;;
54123;SDS011;55741;53.252;5.788;2023-10-13T14:41:27;37.20;;;10.07;;
54123;SDS011;55741;53.252;5.788;2023-10-13T14:43:54;35.28;;;10.65;;
54123;SDS011;55741;53.252;5.788;2023-10-13T14:46:30;29.75;;;10.73;;
54123;SDS011;55741;53.252;5.788;2023-10-13T14:48:56;35.95;;;10.50;;
54123;SDS011;55741;53.252;5.788;2023-10-13T14:51:22;37.50;;;10.82;;
54123;SDS011;55741;53.252;5.788;2023-10-13T14:53:50;33.05;;;10.00;;
54123;SDS011;55741;53.252;5.788;2023-10-13T14:56:21;35.22;;;10.50;;
54123;SDS011;55741;53.252;5.788;2023-10-13T14:58:53;36.67;;;10.55;;
54123;SDS011;55741;53.252;5.788;2023-10-13T15:01:20;31.52;;;9.45;;
54123;SDS011;55741;53.252;5.788;2023-10-13T15:03:47;40.22;;;11.00;;
54123;SDS011;55741;53.252;5.788;2023-10-13T15:06:18;38.25;;;10.95;;
54123;SDS011;55741;53.252;5.788;2023-10-13T15:08:46;36.53;;;9.55;;
54123;SDS011;55741;53.252;5.788;2023-10-13T15:11:13;33.97;;;10.27;;
54123;SDS011;55741;53.252;5.788;2023-10-13T15:13:42;39.25;;;10.05;;
54123;SDS011;55741;53.252;5.788;2023-10-13T15:16:16;37.60;;;10.70;;
54123;SDS011;55741;53.252;5.788;2023-10-13T15:18:47;32.60;;;10.20;;
54123;SDS011;55741;53.252;5.788;2023-10-13T15:21:23;40.97;;;11.43;;
54123;SDS011;55741;53.252;5.788;2023-10-13T15:23:52;36.42;;;11.07;;
54123;SDS011;55741;53.252;5.788;2023-10-13T15:26:19;33.35;;;11.10;;
54123;SDS011;55741;53.252;5.788;2023-10-13T15:28:49;38.72;;;10.63;;
54123;SDS011;55741;53.252;5.788;2023-10-13T15:31:21;38.40;;;10.98;;
54123;SDS011;55741;53.252;5.788;2023-10-13T15:34:11;30.00;;;9.93;;
54123;SDS011;55741;53.252;5.788;2023-10-13T15:36:43;36.15;;;11.13;;
54123;SDS011;55741;53.252;5.788;2023-10-13T15:39:10;38.63;;;10.82;;
54123;SDS011;55741;53.252;5.788;2023-10-13T15:41:37;40.05;;;10.75;;
54123;SDS011;55741;53.252;5.788;2023-10-13T15:44:06;37.97;;;10.93;;
54123;SDS011;55741;53.252;5.788;2023-10-13T15:46:36;36.50;;;10.65;;
54123;SDS011;55741;53.252;5.788;2023-10-13T15:49:02;41.40;;;11.13;;
54123;SDS011;55741;53.252;5.788;2023-10-13T15:51:34;38.20;;;11.85;;
54123;SDS011;55741;53.252;5.788;2023-10-13T15:54:03;34.75;;;10.02;;